Time;durP1;ratioP1;P1;durP2;ratioP2;P2;SDS_P1;SDS_P2;PMS_P1;PMS_P2;Temp;Humidity;BMP_temperature;BMP_pressure;BME280_temperature;BME280_humidity;BME280_pressure;Samples;Min_cycle;Max_cycle;Signal;HPM_P1;HPM_P2
2022/04/06 00:00:09;;;;;;;28.42;16.08;;;;;;;0.40;100.00;97557.97;4993640;28;20398;-63
2022/04/06 00:02:37;;;;;;;25.17;14.98;;;;;;;0.43;100.00;97557.69;5011284;28;20140;-63
2022/04/06 00:05:04;;;;;;;26.55;16.88;;;;;;;0.46;100.00;97552.94;5011007;28;20504;-64
2022/04/06 00:07:30;;;;;;;27.83;16.40;;;;;;;0.46;100.00;97550.28;5011028;28;20141;-63
2022/04/06 00:09:56;;;;;;;27.25;16.55;;;;;;;0.46;100.00;97557.41;5009678;28;20129;-63
2022/04/06 00:12:22;;;;;;;27.50;15.68;;;;;;;0.52;100.00;97562.19;5011063;28;20525;-64
2022/04/06 00:14:47;;;;;;;22.98;12.07;;;;;;;0.55;100.00;97567.22;5009705;28;20506;-64
2022/04/06 00:17:14;;;;;;;25.13;14.13;;;;;;;0.52;100.00;97567.50;5010922;28;20137;-63
2022/04/06 00:19:40;;;;;;;24.08;13.10;;;;;;;0.54;100.00;97559.38;5010595;28;20413;-63
2022/04/06 00:22:06;;;;;;;23.75;12.05;;;;;;;0.56;100.00;97562.75;5009600;28;20050;-63
2022/04/06 00:24:32;;;;;;;20.55;12.10;;;;;;;0.55;100.00;97571.66;4998574;28;20053;-63
2022/04/06 00:26:58;;;;;;;23.48;14.45;;;;;;;0.53;100.00;97563.00;5006237;28;20049;-62
2022/04/06 00:29:24;;;;;;;22.80;14.43;;;;;;;0.49;100.00;97578.41;4989472;28;20042;-63
2022/04/06 00:31:50;;;;;;;20.63;11.00;;;;;;;0.46;100.00;97568.03;4991309;28;20466;-62
2022/04/06 00:34:15;;;;;;;19.52;10.43;;;;;;;0.51;100.00;97587.06;4990965;28;20071;-61
2022/04/06 00:36:41;;;;;;;20.00;9.40;;;;;;;0.57;100.00;97575.88;4991155;28;20066;-64
2022/04/06 00:39:07;;;;;;;24.67;13.00;;;;;;;0.57;100.00;97583.84;4991061;28;20046;-64
2022/04/06 00:41:33;;;;;;;20.10;9.98;;;;;;;0.59;100.00;97589.03;4990969;28;20114;-64
2022/04/06 00:44:16;;;;;;;20.40;9.95;;;;;;;0.65;100.00;97583.97;4991358;28;20415;-65
2022/04/06 00:46:43;;;;;;;19.38;9.40;;;;;;;0.71;100.00;97587.91;4990901;28;20078;-63
2022/04/06 00:49:14;;;;;;;21.35;10.07;;;;;;;0.67;100.00;97582.03;4989355;28;20042;-66
2022/04/06 00:51:43;;;;;;;;;;;;;;;0.78;100.00;97593.53;4991211;28;20076;-62
2022/04/06 00:54:11;;;;;;;18.85;9.93;;;;;;;0.73;100.00;97591.25;5005885;28;20358;-64
2022/04/06 00:56:37;;;;;;;18.50;9.60;;;;;;;0.76;100.00;97600.78;4972921;28;20046;-65
2022/04/06 00:59:03;;;;;;;18.83;10.65;;;;;;;0.75;100.00;97599.94;4989414;28;20060;-63
2022/04/06 01:01:29;;;;;;;19.00;9.88;;;;;;;0.78;100.00;97602.34;4990501;28;20563;-63
2022/04/06 01:03:55;;;;;;;16.83;8.38;;;;;;;0.74;100.00;97592.13;4989285;28;20097;-63
2022/04/06 01:06:20;;;;;;;19.30;9.68;;;;;;;0.68;100.00;97596.16;4989115;28;20415;-62
2022/04/06 01:08:47;;;;;;;18.75;10.18;;;;;;;0.67;100.00;97598.00;4990353;28;20046;-61
2022/04/06 01:11:13;;;;;;;19.23;9.63;;;;;;;0.67;100.00;97598.00;4989080;28;20049;-63
2022/04/06 01:13:39;;;;;;;19.27;9.80;;;;;;;0.59;100.00;97589.88;4973056;28;20552;-62
2022/04/06 01:16:05;;;;;;;16.35;8.32;;;;;;;0.70;100.00;97602.19;4973288;28;20137;-64
2022/04/06 01:18:32;;;;;;;17.58;9.02;;;;;;;0.68;100.00;97594.34;4988777;28;20046;-61
2022/04/06 01:20:58;;;;;;;17.20;9.15;;;;;;;0.76;100.00;97595.47;5005080;28;20060;-62
2022/04/06 01:23:25;;;;;;;19.13;10.10;;;;;;;0.80;100.00;97612.81;4988804;28;20046;-63
2022/04/06 01:25:51;;;;;;;17.73;10.43;;;;;;;0.80;100.00;97613.66;5005162;28;20066;-63
2022/04/06 01:28:17;;;;;;;17.88;8.05;;;;;;;0.68;100.00;97598.81;4989103;28;20050;-63
2022/04/06 01:30:43;;;;;;;22.45;10.10;;;;;;;0.77;100.00;97619.28;4990242;28;20046;-62
2022/04/06 01:33:09;;;;;;;18.25;9.13;;;;;;;0.78;100.00;97612.13;4972882;28;20042;-63
2022/04/06 01:35:38;;;;;;;17.90;9.70;;;;;;;0.77;100.00;97618.41;4990704;28;20125;-63
2022/04/06 01:38:05;;;;;;;17.95;10.77;;;;;;;0.79;100.00;97616.47;5005574;28;20096;-63
2022/04/06 01:40:31;;;;;;;17.85;8.85;;;;;;;0.79;100.00;97616.47;4989423;28;20073;-64
2022/04/06 01:42:57;;;;;;;17.80;9.52;;;;;;;0.76;100.00;97616.75;4990420;28;20054;-64
2022/04/06 01:45:23;;;;;;;25.58;8.35;;;;;;;0.85;100.00;97626.56;4973399;28;20039;-63
2022/04/06 01:47:49;;;;;;;19.08;7.85;;;;;;;0.87;100.00;97627.22;4989244;28;20050;-63
2022/04/06 01:52:59;;;;;;;17.70;9.65;;;;;;;0.84;100.00;97625.72;4989019;28;20069;-62
2022/04/06 01:55:25;;;;;;;18.25;10.63;;;;;;;0.80;100.00;97618.13;5005082;28;20196;-65
2022/04/06 01:57:51;;;;;;;17.30;8.35;;;;;;;0.83;100.00;97639.13;4990448;28;20137;-64
2022/04/06 02:00:18;;;;;;;17.75;8.25;;;;;;;0.82;100.00;97638.31;4990340;28;20451;-64
2022/04/06 02:02:47;;;;;;;19.40;8.43;;;;;;;0.84;100.00;97640.81;4972501;28;20056;-65
2022/04/06 02:05:14;;;;;;;18.60;9.50;;;;;;;0.83;100.00;97644.47;4988680;28;20093;-62
2022/04/06 02:07:40;;;;;;;16.83;8.82;;;;;;;0.81;100.00;97647.28;4988808;28;20054;-63
2022/04/06 02:10:06;;;;;;;15.50;7.20;;;;;;;0.82;100.00;97645.44;4988610;28;20116;-63
2022/04/06 02:12:32;;;;;;;16.08;7.82;;;;;;;0.81;100.00;97641.13;4972453;28;20061;-63
2022/04/06 02:14:58;;;;;;;15.90;7.88;;;;;;;0.68;100.00;97628.91;4988864;28;20046;-63
2022/04/06 02:17:27;;;;;;;16.33;9.35;;;;;;;0.79;100.00;97648.38;4988675;28;20572;-64
2022/04/06 02:19:53;;;;;;;16.45;10.43;;;;;;;0.67;100.00;97651.16;4990063;28;20072;-62
2022/04/06 02:22:19;;;;;;;15.20;8.73;;;;;;;0.72;100.00;97658.72;4990041;28;20062;-63
2022/04/06 02:24:45;;;;;;;13.60;9.13;;;;;;;0.66;100.00;97665.44;4988342;28;20057;-63
2022/04/06 02:27:11;;;;;;;14.05;7.63;;;;;;;0.66;100.00;97670.78;4989948;28;20064;-64
2022/04/06 02:29:38;;;;;;;11.68;5.53;;;;;;;0.67;100.00;97672.44;4989490;28;20466;-64
2022/04/06 02:32:05;;;;;;;11.57;5.88;;;;;;;0.45;100.00;97656.75;4991652;28;20506;-65
2022/04/06 02:34:30;;;;;;;13.52;5.30;;;;;;;0.29;100.00;97648.44;5008322;28;20050;-64
2022/04/06 02:36:56;;;;;;;9.25;4.25;;;;;;;0.48;100.00;97683.06;4991745;28;20058;-63
2022/04/06 02:39:22;;;;;;;10.35;4.40;;;;;;;0.47;99.76;97691.97;5011744;28;20098;-64
2022/04/06 02:41:48;;;;;;;10.90;4.50;;;;;;;0.32;98.80;97675.56;5012697;28;20042;-63
2022/04/06 02:44:15;;;;;;;9.13;3.78;;;;;;;0.42;98.78;97699.53;5012476;28;20559;-63
2022/04/06 02:46:42;;;;;;;9.00;3.60;;;;;;;0.27;98.16;97684.94;5011092;28;20092;-64
2022/04/06 02:49:08;;;;;;;9.77;4.15;;;;;;;0.33;97.61;97701.19;4994646;28;20420;-64
2022/04/06 02:51:34;;;;;;;9.55;3.53;;;;;;;0.36;97.47;97716.00;5011875;28;20133;-63
2022/04/06 02:54:00;;;;;;;9.57;3.92;;;;;;;0.35;97.40;97719.66;5010942;28;20164;-63
2022/04/06 02:56:27;;;;;;;10.15;3.50;;;;;;;0.33;97.23;97716.28;5010989;28;20053;-62
2022/04/06 02:58:54;;;;;;;8.85;3.60;;;;;;;0.27;96.71;97732.78;5012255;28;20057;-63
2022/04/06 03:01:20;;;;;;;10.65;3.40;;;;;;;0.24;96.52;97726.75;5010661;28;20050;-65
2022/04/06 03:03:46;;;;;;;8.70;3.45;;;;;;;0.22;95.00;97736.69;4994580;28;20096;-65
2022/04/06 03:06:12;;;;;;;8.43;3.63;;;;;;;0.29;94.47;97739.63;5012153;28;20157;-63
2022/04/06 03:08:38;;;;;;;8.48;2.75;;;;;;;0.32;93.02;97741.19;5010870;28;20044;-63
2022/04/06 03:11:03;;;;;;;7.60;2.80;;;;;;;0.24;91.51;97724.09;4994004;28;20409;-63
2022/04/06 03:13:29;;;;;;;9.02;2.80;;;;;;;0.35;90.91;97746.22;5010405;28;20469;-64
2022/04/06 03:15:55;;;;;;;7.65;3.00;;;;;;;0.27;90.02;97735.44;5010457;28;20046;-64
2022/04/06 03:18:21;;;;;;;7.45;2.45;;;;;;;0.43;89.65;97762.34;5012088;28;20144;-63
2022/04/06 03:20:48;;;;;;;8.45;2.50;;;;;;;0.44;88.46;97777.34;5010324;28;20592;-62
2022/04/06 03:23:15;;;;;;;8.13;2.45;;;;;;;0.45;86.84;97779.00;5011906;28;20129;-65
2022/04/06 03:25:41;;;;;;;6.75;2.13;;;;;;;0.39;86.45;97780.38;5010168;28;20046;-63
2022/04/06 03:28:07;;;;;;;3.35;1.10;;;;;;;0.28;85.73;97776.97;5010247;28;20042;-64
2022/04/06 03:30:33;;;;;;;5.50;1.55;;;;;;;0.35;84.33;97788.75;5010272;28;20038;-64
2022/04/06 03:32:59;;;;;;;6.07;1.70;;;;;;;0.13;83.04;97764.03;5010137;28;20049;-62
2022/04/06 03:35:25;;;;;;;5.68;1.50;;;;;;;0.30;83.62;97793.63;5010065;28;20096;-64
2022/04/06 03:37:51;;;;;;;5.00;1.40;;;;;;;0.23;83.94;97807.44;5009830;28;20073;-63
2022/04/06 03:40:17;;;;;;;5.85;1.65;;;;;;;0.28;83.09;97814.16;5009810;28;20227;-64
2022/04/06 03:42:43;;;;;;;5.80;1.63;;;;;;;0.28;83.16;97811.50;5009613;28;20157;-63
2022/04/06 03:45:09;;;;;;;5.05;1.48;;;;;;;0.28;82.31;97819.50;4993624;28;20041;-63
2022/04/06 03:47:36;;;;;;;4.25;1.20;;;;;;;0.24;80.37;97819.75;4977324;28;20072;-63
2022/04/06 03:50:05;;;;;;;3.97;0.93;;;;;;;0.18;78.82;97825.59;5009593;28;20046;-64
2022/04/06 03:52:31;;;;;;;5.60;1.35;;;;;;;0.20;78.59;97831.63;5009595;28;20124;-64
2022/04/06 03:54:57;;;;;;;2.83;0.88;;;;;;;0.23;78.18;97834.00;5011613;28;20073;-64
2022/04/06 03:57:25;;;;;;;2.35;0.63;;;;;;;0.31;78.05;97851.13;5009834;28;20042;-63
2022/04/06 03:59:51;;;;;;;4.18;0.90;;;;;;;0.42;77.66;97849.22;5009388;28;20419;-65
2022/04/06 04:02:17;;;;;;;4.10;0.98;;;;;;;0.30;75.13;97844.13;4967306;28;20046;-68
2022/04/06 04:04:43;;;;;;;2.22;0.68;;;;;;;0.31;74.78;97845.81;4992050;28;20379;-63
2022/04/06 04:07:09;;;;;;;3.85;0.88;;;;;;;0.22;74.42;97837.66;4994063;28;20566;-63
2022/04/06 04:09:36;;;;;;;4.13;0.82;;;;;;;0.35;74.47;97844.56;4970839;28;20046;-62
2022/04/06 04:12:03;;;;;;;5.60;1.00;;;;;;;0.30;73.42;97854.75;4976064;28;20088;-64
2022/04/06 04:14:34;;;;;;;3.83;1.00;;;;;;;0.31;72.66;97851.13;4992696;28;20367;-64
2022/04/06 04:17:01;;;;;;;4.03;0.93;;;;;;;0.30;72.92;97854.75;4993325;28;20089;-67
2022/04/06 04:19:27;;;;;;;2.22;0.65;;;;;;;0.28;74.28;97862.00;4996195;28;20086;-65
2022/04/06 04:21:53;;;;;;;2.65;0.70;;;;;;;0.16;73.54;97879.84;4996552;28;20076;-64
2022/04/06 04:24:19;;;;;;;3.45;0.90;;;;;;;0.22;74.17;97879.34;5001683;28;20035;-69
2022/04/06 04:26:45;;;;;;;3.60;1.00;;;;;;;0.10;73.05;97857.28;4984272;28;20097;-65
2022/04/06 04:29:11;;;;;;;3.40;0.82;;;;;;;0.19;73.18;97875.09;4986378;28;20607;-64
2022/04/06 04:31:36;;;;;;;4.80;1.23;;;;;;;0.27;73.96;97879.78;4973860;28;20182;-64
2022/04/06 04:34:03;;;;;;;4.18;1.10;;;;;;;0.18;72.81;97900.00;4998749;28;20049;-64
2022/04/06 04:36:29;;;;;;;4.10;1.15;;;;;;;0.35;72.96;97911.00;5008510;28;20164;-65
2022/04/06 04:38:55;;;;;;;3.35;0.93;;;;;;;0.47;73.76;97909.94;5010197;28;20482;-63
2022/04/06 04:41:22;;;;;;;4.30;1.00;;;;;;;0.66;72.19;97915.41;5008545;28;20108;-65
2022/04/06 04:43:50;;;;;;;5.93;0.90;;;;;;;0.57;72.92;97905.53;5009217;28;20050;-64
2022/04/06 04:46:16;;;;;;;3.95;1.23;;;;;;;0.50;73.08;97912.34;4992636;28;20096;-65
2022/04/06 04:48:42;;;;;;;4.53;1.00;;;;;;;0.68;73.17;97918.75;5008556;28;20470;-65
2022/04/06 04:51:08;;;;;;;4.85;1.40;;;;;;;0.89;72.48;97929.34;5009326;28;20089;-63
2022/04/06 04:53:34;;;;;;;3.65;1.05;;;;;;;0.95;71.36;97920.00;5007260;28;20097;-64
2022/04/06 04:55:59;;;;;;;5.18;1.10;;;;;;;0.91;71.53;97918.56;5009289;28;20050;-65
2022/04/06 04:58:27;;;;;;;4.47;1.05;;;;;;;1.03;71.52;97927.34;4974958;28;20115;-63
2022/04/06 05:00:54;;;;;;;5.15;1.20;;;;;;;1.13;70.86;97928.19;5008742;28;20041;-64
2022/04/06 05:03:20;;;;;;;7.32;1.23;;;;;;;1.03;71.63;97941.47;5009619;28;20041;-63
2022/04/06 05:05:50;;;;;;;3.85;1.10;;;;;;;0.90;72.04;97948.81;5007775;28;20193;-62
2022/04/06 05:08:16;;;;;;;4.90;1.27;;;;;;;0.95;73.79;97957.22;4991698;28;20057;-63
2022/04/06 05:10:41;;;;;;;6.53;1.08;;;;;;;0.83;75.40;97943.19;4991729;28;20237;-65
2022/04/06 05:13:08;;;;;;;4.68;1.20;;;;;;;0.61;76.90;97949.50;5008043;28;20139;-64
2022/04/06 05:15:34;;;;;;;4.68;1.20;;;;;;;0.75;76.91;97960.78;4991089;28;20030;-63
2022/04/06 05:18:00;;;;;;;4.50;1.10;;;;;;;0.59;75.47;97967.41;5007786;28;20054;-64
2022/04/06 05:20:26;;;;;;;4.45;1.38;;;;;;;0.65;74.60;97971.34;5009487;28;20579;-64
2022/04/06 05:22:52;;;;;;;5.10;1.10;;;;;;;1.03;72.92;97969.91;4991427;28;20449;-65
2022/04/06 05:25:18;;;;;;;3.75;1.10;;;;;;;0.78;72.06;97984.47;5009591;28;20056;-64
2022/04/06 05:27:48;;;;;;;5.18;1.13;;;;;;;1.05;72.23;97974.09;5009978;28;20054;-64
2022/04/06 05:30:16;;;;;;;3.25;0.82;;;;;;;1.25;68.98;97987.50;5009550;28;20042;-64
2022/04/06 05:32:42;;;;;;;3.35;0.90;;;;;;;1.12;67.92;97985.88;5007880;28;20104;-64
2022/04/06 05:35:09;;;;;;;5.72;2.03;;;;;;;2.51;64.45;97985.03;4991950;28;20038;-64
2022/04/06 05:37:39;;;;;;;3.85;1.08;;;;;;;2.00;64.59;97986.16;5008208;28;20140;-64
2022/04/06 05:40:06;;;;;;;4.18;1.08;;;;;;;2.07;61.11;97988.13;5008175;28;20085;-64
2022/04/06 05:42:33;;;;;;;5.43;1.30;;;;;;;2.17;61.18;98001.47;4991556;28;20501;-66
2022/04/06 05:44:59;;;;;;;5.93;1.30;;;;;;;1.91;62.21;97993.16;5008268;28;20140;-64
2022/04/06 05:47:25;;;;;;;4.20;1.85;;;;;;;3.03;60.02;98007.69;5008067;28;20140;-64
2022/04/06 05:49:51;;;;;;;3.33;1.17;;;;;;;3.78;57.03;98019.22;5008018;28;20052;-62
2022/04/06 05:52:17;;;;;;;5.47;1.63;;;;;;;3.82;53.14;98025.13;5008464;28;20050;-64
2022/04/06 05:54:42;;;;;;;3.75;1.48;;;;;;;5.44;53.32;98024.88;5008457;28;20141;-63
2022/04/06 05:57:08;;;;;;;5.20;1.95;;;;;;;6.62;46.58;98015.09;5010027;28;20061;-65
2022/04/06 05:59:36;;;;;;;5.63;1.70;;;;;;;7.09;44.15;98016.22;5007829;28;20498;-63
2022/04/06 06:02:05;;;;;;;5.63;1.70;;;;;;;5.81;45.22;98034.44;4990741;28;20053;-67
2022/04/06 06:04:33;;;;;;;5.10;1.70;;;;;;;5.98;43.96;98017.44;4991387;28;20072;-65
2022/04/06 06:06:59;;;;;;;4.40;1.38;;;;;;;5.73;45.99;98039.75;5011520;28;20557;-64
2022/04/06 06:09:25;;;;;;;4.72;1.60;;;;;;;6.00;45.92;98042.28;4995358;28;20502;-65
2022/04/06 06:11:51;;;;;;;5.35;1.50;;;;;;;5.70;45.15;98046.28;5011701;28;20054;-64
2022/04/06 06:14:17;;;;;;;5.03;1.63;;;;;;;6.11;44.89;98051.03;5011659;28;20524;-65
2022/04/06 06:16:45;;;;;;;5.00;1.55;;;;;;;6.55;44.19;98056.19;5011468;28;20052;-64
2022/04/06 06:19:11;;;;;;;4.55;2.00;;;;;;;6.58;43.48;98050.47;5012988;28;20117;-65
2022/04/06 06:21:37;;;;;;;4.55;1.58;;;;;;;6.89;44.05;98062.25;5011680;28;20144;-64
2022/04/06 06:24:06;;;;;;;5.55;1.58;;;;;;;7.39;42.27;98055.03;5011563;28;20500;-65
2022/04/06 06:26:33;;;;;;;5.65;1.88;;;;;;;8.13;40.93;98079.88;4995723;28;20042;-64
2022/04/06 06:28:59;;;;;;;8.57;1.92;;;;;;;7.31;40.98;98080.03;5012848;28;20052;-64
2022/04/06 06:31:27;;;;;;;6.32;2.00;;;;;;;6.78;41.39;98084.06;5012625;28;20144;-65
2022/04/06 06:33:54;;;;;;;5.93;1.58;;;;;;;6.78;42.71;98086.75;4995404;28;20042;-65
2022/04/06 06:36:20;;;;;;;4.15;1.70;;;;;;;7.91;40.60;98087.66;5011146;28;20100;-65
2022/04/06 06:38:46;;;;;;;9.07;1.63;;;;;;;8.44;38.40;98087.97;4995129;28;20046;-63
2022/04/06 06:41:11;;;;;;;4.28;1.90;;;;;;;9.82;37.09;98077.13;5011400;28;20045;-64
2022/04/06 06:43:37;;;;;;;4.53;1.65;;;;;;;9.64;36.84;98088.28;5012794;28;20089;-64
2022/04/06 06:46:03;;;;;;;5.70;1.73;;;;;;;10.12;34.09;98073.38;5012788;28;20478;-65
2022/04/06 06:48:29;;;;;;;6.00;1.80;;;;;;;11.03;33.92;98089.25;5011409;28;20077;-64
2022/04/06 06:50:54;;;;;;;5.00;1.80;;;;;;;11.12;33.31;98090.81;5011019;28;20042;-66
2022/04/06 06:53:20;;;;;;;5.18;1.73;;;;;;;12.09;32.83;98092.84;4994610;28;20041;-65
2022/04/06 06:55:46;;;;;;;5.75;1.88;;;;;;;12.06;31.54;98093.25;5011041;28;20053;-66
2022/04/06 06:58:12;;;;;;;4.72;1.70;;;;;;;9.32;33.81;98084.84;5012483;28;20052;-64
2022/04/06 07:00:38;;;;;;;4.35;1.50;;;;;;;9.16;34.85;98093.09;4978628;28;20508;-65
2022/04/06 07:03:04;;;;;;;4.68;1.60;;;;;;;10.37;33.01;98081.22;5010936;28;20042;-64
2022/04/06 07:05:30;;;;;;;4.68;2.30;;;;;;;10.97;32.17;98099.00;5010927;28;20042;-63
2022/04/06 07:08:02;;;;;;;5.07;2.00;;;;;;;11.01;30.92;98105.69;5012283;28;20114;-65
2022/04/06 07:10:29;;;;;;;6.05;1.20;;;;;;;12.38;29.59;98107.19;4994387;28;20440;-64
2022/04/06 07:12:55;;;;;;;4.28;1.25;;;;;;;12.79;29.64;98110.69;5010409;28;20391;-64
2022/04/06 07:15:25;;;;;;;7.10;1.88;;;;;;;12.87;29.21;98106.13;5010652;28;20049;-65
2022/04/06 07:17:55;;;;;;;4.90;1.90;;;;;;;14.43;27.50;98106.56;5009989;28;20038;-64
2022/04/06 07:20:30;;;;;;;5.28;2.10;;;;;;;11.56;30.03;98114.09;5010786;28;20045;-64
2022/04/06 07:22:56;;;;;;;4.55;1.85;;;;;;;10.19;31.45;98116.69;5010685;28;20046;-65
2022/04/06 07:25:22;;;;;;;5.10;1.98;;;;;;;11.69;30.97;98125.03;5011879;28;20038;-64
2022/04/06 07:27:48;;;;;;;5.15;1.75;;;;;;;12.36;29.65;98120.06;4994569;28;20107;-64
2022/04/06 07:30:14;;;;;;;6.75;1.75;;;;;;;11.03;31.12;98124.41;5011797;28;20041;-64
2022/04/06 07:32:40;;;;;;;4.80;1.80;;;;;;;12.27;30.15;98128.38;4994104;28;20072;-64
2022/04/06 07:35:35;;;;;;;7.07;2.17;;;;;;;10.89;29.16;98128.00;4978118;28;20489;-64
2022/04/06 07:38:12;;;;;;;7.25;2.35;;;;;;;9.50;30.58;98132.22;4994873;28;20064;-66
2022/04/06 07:40:38;;;;;;;5.60;1.80;;;;;;;11.59;29.17;98140.78;4995623;28;20145;-66
2022/04/06 07:43:03;;;;;;;4.95;1.77;;;;;;;11.19;28.45;98134.13;5012341;28;20053;-66
2022/04/06 07:45:29;;;;;;;5.28;1.67;;;;;;;9.77;30.32;98141.63;4977980;28;20038;-63
2022/04/06 07:47:55;;;;;;;4.28;1.70;;;;;;;9.73;31.20;98110.63;5010675;28;20049;-65
2022/04/06 07:50:22;;;;;;;4.22;1.63;;;;;;;12.21;27.30;98137.31;5009966;28;20366;-65
2022/04/06 07:52:48;;;;;;;4.38;1.88;;;;;;;13.40;24.80;98138.84;5009810;28;20084;-65
2022/04/06 07:55:14;;;;;;;6.55;2.03;;;;;;;13.06;26.27;98128.94;5009922;28;20152;-64
2022/04/06 07:57:41;;;;;;;5.07;1.73;;;;;;;13.68;26.39;98130.53;5011051;28;20044;-65
2022/04/06 08:00:13;;;;;;;5.40;2.38;;;;;;;14.54;23.48;98133.13;5010852;28;20133;-65
2022/04/06 08:02:39;;;;;;;5.25;2.00;;;;;;;14.88;25.25;98131.97;5009720;28;20080;-65
2022/04/06 08:05:05;;;;;;;5.40;1.38;;;;;;;13.18;24.87;98143.56;5009471;28;20437;-66
2022/04/06 08:07:32;;;;;;;5.80;2.15;;;;;;;11.52;26.37;98139.88;4992137;28;20046;-63
2022/04/06 08:09:58;;;;;;;4.80;1.70;;;;;;;12.60;26.11;98138.56;4993238;28;20140;-65
2022/04/06 08:12:24;;;;;;;4.53;1.75;;;;;;;13.03;26.06;98133.72;4993264;28;20046;-67
2022/04/06 08:14:50;;;;;;;6.03;2.10;;;;;;;13.19;25.71;98126.25;4993289;28;20132;-65
2022/04/06 08:17:17;;;;;;;6.20;1.73;;;;;;;13.01;26.30;98126.81;5010661;28;20086;-65
2022/04/06 08:19:42;;;;;;;3.40;1.33;;;;;;;14.02;24.86;98115.88;5010941;28;20414;-65
2022/04/06 08:22:08;;;;;;;5.38;1.80;;;;;;;14.60;23.51;98113.25;5011070;28;20139;-65
2022/04/06 08:24:43;;;;;;;5.45;1.98;;;;;;;14.86;23.43;98127.78;5009347;28;20050;-66
2022/04/06 08:27:09;;;;;;;7.05;1.80;;;;;;;15.01;22.68;98120.19;5010546;28;20050;-65
2022/04/06 08:29:35;;;;;;;7.57;2.17;;;;;;;16.37;22.00;98146.00;5010645;28;20053;-66
2022/04/06 08:32:00;;;;;;;7.07;2.05;;;;;;;16.82;21.10;98143.03;5010459;28;20065;-64
2022/04/06 08:34:27;;;;;;;6.30;2.00;;;;;;;15.68;21.14;98131.50;4976436;28;20149;-65
2022/04/06 08:36:52;;;;;;;7.32;2.15;;;;;;;12.46;23.02;98131.41;4992865;28;20049;-66
2022/04/06 08:39:21;;;;;;;6.13;2.00;;;;;;;14.38;22.70;98142.56;4992514;28;20045;-65
2022/04/06 08:41:47;;;;;;;5.28;1.95;;;;;;;14.34;23.63;98129.63;4992479;28;20081;-65
2022/04/06 08:44:13;;;;;;;7.00;2.13;;;;;;;12.35;23.38;98154.47;4992715;28;20046;-66
2022/04/06 08:46:40;;;;;;;4.85;2.00;;;;;;;12.53;23.52;98151.25;5010549;28;20077;-65
2022/04/06 08:49:06;;;;;;;3.97;1.35;;;;;;;13.71;22.45;98138.22;4992596;28;20509;-66
2022/04/06 08:51:36;;;;;;;6.65;2.17;;;;;;;12.35;23.53;98143.63;5010578;28;20041;-65
2022/04/06 08:54:04;;;;;;;5.22;1.85;;;;;;;14.96;21.84;98149.94;5009889;28;20053;-65
2022/04/06 08:56:30;;;;;;;6.43;2.00;;;;;;;14.11;21.52;98140.94;4977709;28;20117;-68
2022/04/06 08:59:00;;;;;;;4.80;1.98;;;;;;;15.49;21.04;98155.06;5009904;28;20092;-65
2022/04/06 09:01:28;;;;;;;4.68;1.98;;;;;;;15.26;20.03;98152.09;5011766;28;20046;-65
2022/04/06 09:03:54;;;;;;;5.28;1.85;;;;;;;14.64;20.79;98138.13;5011885;28;20056;-67
2022/04/06 09:06:20;;;;;;;7.95;2.25;;;;;;;14.29;21.87;98143.00;4993808;28;20138;-65
2022/04/06 09:08:48;;;;;;;5.10;1.90;;;;;;;14.78;21.38;98138.94;4993611;28;20081;-64
2022/04/06 09:11:19;;;;;;;6.30;1.98;;;;;;;15.01;20.98;98125.63;5009767;28;20133;-65
2022/04/06 09:13:46;;;;;;;4.85;1.65;;;;;;;16.13;19.43;98145.81;5009797;28;20501;-66
2022/04/06 09:16:16;;;;;;;4.90;1.73;;;;;;;17.34;18.63;98143.38;5009986;28;20140;-67
2022/04/06 09:18:44;;;;;;;5.63;1.63;;;;;;;17.38;18.33;98141.84;5009729;28;20142;-65
2022/04/06 09:21:14;;;;;;;6.10;2.13;;;;;;;14.44;21.26;98151.75;5009363;28;20042;-64
2022/04/06 09:23:40;;;;;;;7.82;2.60;;;;;;;16.96;19.67;98139.03;5010172;28;20490;-65
2022/04/06 09:26:13;;;;;;;5.28;1.92;;;;;;;16.32;19.01;98143.13;5008334;28;20061;-65
2022/04/06 09:28:40;;;;;;;5.82;1.95;;;;;;;17.33;18.47;98138.97;4992684;28;20552;-67
2022/04/06 09:31:06;;;;;;;6.45;2.15;;;;;;;17.77;18.07;98134.97;5010247;28;20069;-65
2022/04/06 09:33:32;;;;;;;7.72;1.90;;;;;;;16.98;19.02;98147.84;5010135;28;20058;-66
2022/04/06 09:35:58;;;;;;;5.68;2.05;;;;;;;14.50;20.83;98148.22;5008414;28;20477;-65
2022/04/06 09:38:31;;;;;;;10.70;2.30;;;;;;;15.64;20.61;98141.13;5008641;28;20049;-65
2022/04/06 09:41:06;;;;;;;6.80;1.92;;;;;;;11.90;23.39;98142.31;5011308;28;20050;-66
2022/04/06 09:43:33;;;;;;;5.68;1.85;;;;;;;12.40;22.63;98159.31;5013931;28;20054;-66
2022/04/06 09:49:05;;;;;;;5.93;1.92;;;;;;;12.90;21.92;98132.84;5012483;28;20049;-64
2022/04/06 09:51:32;;;;;;;8.13;2.05;;;;;;;13.44;22.27;98145.53;5012317;28;20049;-66
2022/04/06 09:54:01;;;;;;;6.15;2.13;;;;;;;14.16;20.22;98144.69;4995856;28;20081;-64
2022/04/06 09:56:27;;;;;;;9.60;2.13;;;;;;;16.15;20.09;98143.66;5012094;28;20053;-65
2022/04/06 09:58:54;;;;;;;4.60;1.63;;;;;;;14.51;20.10;98128.13;5012153;28;20057;-65
2022/04/06 10:09:46;;;;;;;;;;;;;;;12.67;21.41;98147.56;5015771;28;20195;-65
2022/04/06 10:12:11;;;;;;;5.38;1.80;;;;;;;13.90;22.13;98133.88;4997509;28;19937;-66
2022/04/06 10:14:37;;;;;;;5.47;2.08;;;;;;;15.55;20.93;98132.41;5014450;28;20100;-65
2022/04/06 10:17:03;;;;;;;5.40;1.90;;;;;;;15.73;19.53;98133.59;5014501;28;20049;-66
2022/04/06 10:19:34;;;;;;;7.28;1.40;;;;;;;13.16;21.92;98149.22;4997838;28;20046;-65
2022/04/06 10:22:10;;;;;;;5.25;1.35;;;;;;;11.35;22.30;98148.25;4997613;28;20153;-65
2022/04/06 10:24:57;;;;;;;7.10;2.03;;;;;;;12.25;21.64;98137.75;5014201;28;20050;-65
2022/04/06 10:27:34;;;;;;;6.00;1.98;;;;;;;13.08;22.17;98130.38;4980890;28;20046;-66
2022/04/06 10:30:05;;;;;;;4.28;1.58;;;;;;;13.51;21.60;98144.50;4996957;28;20122;-70
2022/04/06 10:32:52;;;;;;;8.80;1.73;;;;;;;12.36;22.92;98136.34;4996757;28;20056;-65
2022/04/06 10:35:24;;;;;;;6.18;1.80;;;;;;;14.35;21.32;98120.41;5013862;28;20042;-64
2022/04/06 10:37:56;;;;;;;6.90;1.73;;;;;;;13.74;21.69;98132.38;4995899;28;20501;-64
2022/04/06 10:40:22;;;;;;;6.55;1.40;;;;;;;11.76;22.84;98130.50;5014144;28;20363;-66
2022/04/06 10:42:49;;;;;;;6.55;1.73;;;;;;;12.40;23.10;98127.63;5013739;28;20042;-67
2022/04/06 10:45:24;;;;;;;6.78;1.98;;;;;;;13.22;21.80;98142.94;4997305;28;20045;-66
2022/04/06 10:48:08;;;;;;;6.18;1.85;;;;;;;13.31;21.80;98119.22;5013892;28;20045;-66
2022/04/06 10:50:35;;;;;;;5.40;1.70;;;;;;;13.89;22.72;98126.75;5013736;28;20045;-65
2022/04/06 10:53:21;;;;;;;5.70;1.92;;;;;;;12.65;22.35;98136.09;5012239;28;20058;-65
2022/04/06 10:56:12;;;;;;;6.80;2.03;;;;;;;12.37;22.52;98127.19;5013205;28;20050;-66
2022/04/06 10:58:56;;;;;;;3.70;1.23;;;;;;;12.14;21.03;98136.44;5012634;28;20481;-65
2022/04/06 11:01:30;;;;;;;6.18;2.03;;;;;;;13.74;21.09;98132.38;5012950;28;20049;-65
2022/04/06 11:04:04;;;;;;;7.22;1.90;;;;;;;13.47;20.69;98128.84;5012738;28;20056;-65
2022/04/06 11:06:56;;;;;;;5.85;1.92;;;;;;;12.82;21.46;98124.88;5014185;28;20049;-66
2022/04/06 11:12:33;;;;;;;4.75;1.60;;;;;;;13.16;20.76;98137.50;5012555;28;20062;-66
2022/04/06 11:14:59;;;;;;;6.10;1.73;;;;;;;13.50;19.41;98123.81;5012227;28;20111;-66
2022/04/06 11:19:59;;;;;;;6.00;1.80;;;;;;;12.85;20.43;98113.63;5012303;28;20466;-67
2022/04/06 11:22:25;;;;;;;6.47;1.70;;;;;;;12.79;19.16;98105.25;5010492;28;20042;-64
2022/04/06 11:24:51;;;;;;;5.70;1.40;;;;;;;12.72;20.58;98115.28;4994524;28;20042;-65
2022/04/06 11:27:31;;;;;;;4.50;1.40;;;;;;;14.23;18.95;98117.50;5011144;28;20120;-66
2022/04/06 11:30:14;;;;;;;5.25;1.83;;;;;;;12.57;20.05;98125.41;5011665;28;20088;-66
2022/04/06 11:32:45;;;;;;;6.45;1.73;;;;;;;13.00;19.65;98106.16;5011114;28;20124;-65
2022/04/06 11:35:11;;;;;;;5.22;1.83;;;;;;;11.51;19.80;98100.31;5010896;28;20061;-66
2022/04/06 11:37:48;;;;;;;4.57;1.75;;;;;;;13.30;19.02;98111.25;4994262;28;20477;-66
2022/04/06 11:40:18;;;;;;;4.75;1.73;;;;;;;12.85;19.60;98081.09;4995248;28;20489;-66
2022/04/06 11:42:48;;;;;;;6.45;1.48;;;;;;;13.96;19.53;98106.66;4979926;28;20046;-65
2022/04/06 11:45:26;;;;;;;4.65;1.58;;;;;;;14.26;20.12;98099.94;5012788;28;20053;-66
2022/04/06 11:47:56;;;;;;;5.82;1.85;;;;;;;15.27;18.62;98102.03;5010308;28;20037;-66
2022/04/06 11:50:28;;;;;;;4.22;1.67;;;;;;;12.46;20.13;98105.13;5011705;28;20492;-64
2022/04/06 11:52:54;;;;;;;6.32;1.52;;;;;;;12.07;20.82;98108.47;4994025;28;20500;-65
2022/04/06 11:55:20;;;;;;;4.43;1.65;;;;;;;10.48;21.18;98083.44;4993735;28;20050;-65